sensor_id;sensor_type;location;lat;lon;timestamp;pressure;altitude;pressure_sealevel;temperature;humidity
3464;BME280;3551;41.578;24.706;2023-07-31T00:00:47;90855.59;;;21.09;76.83
3464;BME280;3551;41.578;24.706;2023-07-31T00:03:14;90858.44;;;21.06;76.44
3464;BME280;3551;41.578;24.706;2023-07-31T00:05:41;90854.97;;;21.05;76.65
3464;BME280;3551;41.578;24.706;2023-07-31T00:08:07;90852.88;;;21.09;76.30
3464;BME280;3551;41.578;24.706;2023-07-31T00:10:34;90853.44;;;21.13;75.99
3464;BME280;3551;41.578;24.706;2023-07-31T00:13:01;90853.13;;;20.88;77.13
3464;BME280;3551;41.578;24.706;2023-07-31T00:15:29;90851.34;;;20.85;77.28
3464;BME280;3551;41.578;24.706;2023-07-31T00:17:55;90840.19;;;21.06;76.48
3464;BME280;3551;41.578;24.706;2023-07-31T00:20:22;90841.09;;;21.03;76.54
3464;BME280;3551;41.578;24.706;2023-07-31T00:22:49;90843.28;;;20.90;76.87
3464;BME280;3551;41.578;24.706;2023-07-31T00:25:15;90844.16;;;20.96;76.71
3464;BME280;3551;41.578;24.706;2023-07-31T00:27:42;90846.81;;;21.05;76.03
3464;BME280;3551;41.578;24.706;2023-07-31T00:30:11;90847.19;;;20.98;75.93
3464;BME280;3551;41.578;24.706;2023-07-31T00:32:39;90844.22;;;20.87;76.92
3464;BME280;3551;41.578;24.706;2023-07-31T00:35:06;90840.94;;;20.83;76.48
3464;BME280;3551;41.578;24.706;2023-07-31T00:37:33;90845.56;;;20.68;77.50
3464;BME280;3551;41.578;24.706;2023-07-31T00:39:59;90838.03;;;20.39;78.98
3464;BME280;3551;41.578;24.706;2023-07-31T00:42:26;90829.91;;;20.21;79.69
3464;BME280;3551;41.578;24.706;2023-07-31T00:44:53;90831.19;;;20.44;79.22
3464;BME280;3551;41.578;24.706;2023-07-31T00:47:19;90827.28;;;20.45;79.63
3464;BME280;3551;41.578;24.706;2023-07-31T00:49:47;90823.88;;;20.59;78.89
3464;BME280;3551;41.578;24.706;2023-07-31T00:52:14;90828.06;;;20.69;78.87
3464;BME280;3551;41.578;24.706;2023-07-31T00:54:41;90832.44;;;20.66;77.92
3464;BME280;3551;41.578;24.706;2023-07-31T00:57:08;90821.44;;;20.61;77.83
3464;BME280;3551;41.578;24.706;2023-07-31T00:59:35;90821.63;;;20.57;77.66
3464;BME280;3551;41.578;24.706;2023-07-31T01:02:01;90824.69;;;20.50;77.72
3464;BME280;3551;41.578;24.706;2023-07-31T01:04:28;90809.53;;;20.58;77.71
3464;BME280;3551;41.578;24.706;2023-07-31T01:06:58;90818.03;;;20.51;77.85
3464;BME280;3551;41.578;24.706;2023-07-31T01:09:29;90813.16;;;20.55;77.71
3464;BME280;3551;41.578;24.706;2023-07-31T01:12:00;90810.75;;;20.57;77.86
3464;BME280;3551;41.578;24.706;2023-07-31T01:14:27;90819.47;;;20.61;77.44
3464;BME280;3551;41.578;24.706;2023-07-31T01:16:54;90812.72;;;20.57;77.92
3464;BME280;3551;41.578;24.706;2023-07-31T01:19:21;90821.63;;;20.57;78.19
3464;BME280;3551;41.578;24.706;2023-07-31T01:21:56;90824.03;;;20.55;78.10
3464;BME280;3551;41.578;24.706;2023-07-31T01:24:28;90820.56;;;20.55;77.94
3464;BME280;3551;41.578;24.706;2023-07-31T01:26:58;90816.00;;;20.61;77.45
3464;BME280;3551;41.578;24.706;2023-07-31T01:29:32;90816.16;;;20.66;76.99
3464;BME280;3551;41.578;24.706;2023-07-31T01:32:01;90817.50;;;20.62;76.79
3464;BME280;3551;41.578;24.706;2023-07-31T01:34:28;90817.41;;;20.80;77.07
3464;BME280;3551;41.578;24.706;2023-07-31T01:36:55;90807.09;;;20.84;77.17
3464;BME280;3551;41.578;24.706;2023-07-31T01:39:22;90814.16;;;20.67;77.39
3464;BME280;3551;41.578;24.706;2023-07-31T01:41:48;90809.34;;;20.38;78.33
3464;BME280;3551;41.578;24.706;2023-07-31T01:44:16;90810.91;;;20.21;78.68
3464;BME280;3551;41.578;24.706;2023-07-31T01:46:43;90808.41;;;20.08;78.88
3464;BME280;3551;41.578;24.706;2023-07-31T01:49:10;90806.44;;;20.09;79.28
3464;BME280;3551;41.578;24.706;2023-07-31T01:51:37;90812.88;;;20.30;78.94
3464;BME280;3551;41.578;24.706;2023-07-31T01:54:04;90811.44;;;20.43;77.65
3464;BME280;3551;41.578;24.706;2023-07-31T01:56:30;90803.00;;;20.41;77.75
3464;BME280;3551;41.578;24.706;2023-07-31T01:58:57;90808.03;;;19.92;79.41
3464;BME280;3551;41.578;24.706;2023-07-31T02:01:25;90804.22;;;19.98;79.49
3464;BME280;3551;41.578;24.706;2023-07-31T02:03:52;90805.91;;;20.29;78.73
3464;BME280;3551;41.578;24.706;2023-07-31T02:06:19;90806.69;;;20.20;78.42
3464;BME280;3551;41.578;24.706;2023-07-31T02:08:46;90803.75;;;20.00;79.47
3464;BME280;3551;41.578;24.706;2023-07-31T02:11:12;90810.22;;;20.02;79.22
3464;BME280;3551;41.578;24.706;2023-07-31T02:13:39;90798.69;;;19.93;79.75
3464;BME280;3551;41.578;24.706;2023-07-31T02:16:05;90804.19;;;20.07;78.81
3464;BME280;3551;41.578;24.706;2023-07-31T02:18:34;90796.50;;;20.06;79.01
3464;BME280;3551;41.578;24.706;2023-07-31T02:21:00;90799.78;;;20.19;78.77
3464;BME280;3551;41.578;24.706;2023-07-31T02:23:27;90791.06;;;20.06;79.00
3464;BME280;3551;41.578;24.706;2023-07-31T02:25:53;90791.28;;;19.93;80.38
3464;BME280;3551;41.578;24.706;2023-07-31T02:28:20;90798.16;;;20.03;79.61
3464;BME280;3551;41.578;24.706;2023-07-31T02:30:47;90797.88;;;20.01;79.63
3464;BME280;3551;41.578;24.706;2023-07-31T02:33:14;90792.91;;;20.00;82.22
3464;BME280;3551;41.578;24.706;2023-07-31T02:35:42;90799.34;;;20.11;79.83
3464;BME280;3551;41.578;24.706;2023-07-31T02:38:08;90812.09;;;20.29;78.62
3464;BME280;3551;41.578;24.706;2023-07-31T02:40:35;90804.84;;;20.35;79.14
3464;BME280;3551;41.578;24.706;2023-07-31T02:43:02;90808.44;;;20.41;79.63
3464;BME280;3551;41.578;24.706;2023-07-31T02:45:28;90800.22;;;20.50;78.00
3464;BME280;3551;41.578;24.706;2023-07-31T02:47:55;90801.53;;;20.55;77.93
3464;BME280;3551;41.578;24.706;2023-07-31T02:50:21;90807.69;;;19.99;78.73
3464;BME280;3551;41.578;24.706;2023-07-31T02:52:49;90817.53;;;19.87;79.55
3464;BME280;3551;41.578;24.706;2023-07-31T02:55:16;90813.09;;;20.08;79.35
3464;BME280;3551;41.578;24.706;2023-07-31T02:57:43;90804.66;;;19.64;81.08
3464;BME280;3551;41.578;24.706;2023-07-31T03:00:09;90805.00;;;19.39;83.00
3464;BME280;3551;41.578;24.706;2023-07-31T03:02:36;90810.38;;;19.57;82.52
3464;BME280;3551;41.578;24.706;2023-07-31T03:05:03;90810.06;;;20.06;78.19
3464;BME280;3551;41.578;24.706;2023-07-31T03:07:29;90807.03;;;20.13;78.22
3464;BME280;3551;41.578;24.706;2023-07-31T03:09:57;90812.66;;;20.42;76.60
3464;BME280;3551;41.578;24.706;2023-07-31T03:12:24;90803.06;;;20.56;75.46
3464;BME280;3551;41.578;24.706;2023-07-31T03:14:51;90819.53;;;20.76;73.05
3464;BME280;3551;41.578;24.706;2023-07-31T03:17:17;90820.50;;;20.88;72.43
3464;BME280;3551;41.578;24.706;2023-07-31T03:19:44;90821.16;;;21.06;70.42
3464;BME280;3551;41.578;24.706;2023-07-31T03:22:11;90823.53;;;21.13;70.79
3464;BME280;3551;41.578;24.706;2023-07-31T03:24:37;90820.63;;;21.17;67.80
3464;BME280;3551;41.578;24.706;2023-07-31T03:27:06;90813.44;;;21.28;68.31
3464;BME280;3551;41.578;24.706;2023-07-31T03:29:32;90811.63;;;21.25;70.87
3464;BME280;3551;41.578;24.706;2023-07-31T03:31:59;90813.16;;;21.03;71.37
3464;BME280;3551;41.578;24.706;2023-07-31T03:34:26;90808.97;;;20.78;73.21
3464;BME280;3551;41.578;24.706;2023-07-31T03:36:53;90809.03;;;20.69;73.19
3464;BME280;3551;41.578;24.706;2023-07-31T03:39:19;90804.03;;;20.67;72.61
3464;BME280;3551;41.578;24.706;2023-07-31T03:41:46;90809.09;;;20.84;72.85
3464;BME280;3551;41.578;24.706;2023-07-31T03:44:14;90807.28;;;21.04;74.39
3464;BME280;3551;41.578;24.706;2023-07-31T03:46:40;90805.91;;;21.09;75.08
3464;BME280;3551;41.578;24.706;2023-07-31T03:49:07;90816.13;;;21.14;74.34
3464;BME280;3551;41.578;24.706;2023-07-31T03:51:34;90813.81;;;21.21;74.43
3464;BME280;3551;41.578;24.706;2023-07-31T03:54:00;90812.03;;;21.33;73.98
3464;BME280;3551;41.578;24.706;2023-07-31T03:56:27;90822.03;;;21.12;74.24
3464;BME280;3551;41.578;24.706;2023-07-31T03:58:54;90820.44;;;21.20;73.65
3464;BME280;3551;41.578;24.706;2023-07-31T04:01:22;90825.06;;;21.29;74.33
3464;BME280;3551;41.578;24.706;2023-07-31T04:03:49;90823.59;;;21.04;75.24
3464;BME280;3551;41.578;24.706;2023-07-31T04:06:15;90817.97;;;21.08;74.86
3464;BME280;3551;41.578;24.706;2023-07-31T04:08:43;90813.56;;;21.10;75.16
3464;BME280;3551;41.578;24.706;2023-07-31T04:11:10;90809.84;;;21.22;76.49
3464;BME280;3551;41.578;24.706;2023-07-31T04:13:36;90807.22;;;21.28;77.10
3464;BME280;3551;41.578;24.706;2023-07-31T04:16:03;90816.53;;;21.21;77.88
3464;BME280;3551;41.578;24.706;2023-07-31T04:18:31;90812.53;;;21.08;79.20
3464;BME280;3551;41.578;24.706;2023-07-31T04:20:58;90820.47;;;20.73;80.06
3464;BME280;3551;41.578;24.706;2023-07-31T04:23:26;90830.34;;;20.85;79.82
3464;BME280;3551;41.578;24.706;2023-07-31T04:25:53;90824.09;;;20.94;80.16
3464;BME280;3551;41.578;24.706;2023-07-31T04:28:19;90823.59;;;20.81;79.62
3464;BME280;3551;41.578;24.706;2023-07-31T04:30:46;90821.22;;;20.50;80.04
3464;BME280;3551;41.578;24.706;2023-07-31T04:33:13;90836.31;;;20.74;81.25
3464;BME280;3551;41.578;24.706;2023-07-31T04:35:41;90838.78;;;20.87;80.30
3464;BME280;3551;41.578;24.706;2023-07-31T04:38:07;90835.72;;;20.70;83.29
3464;BME280;3551;41.578;24.706;2023-07-31T04:40:34;90841.63;;;20.69;82.11
3464;BME280;3551;41.578;24.706;2023-07-31T04:43:01;90847.31;;;20.80;82.54
3464;BME280;3551;41.578;24.706;2023-07-31T04:45:28;90852.03;;;20.70;85.93
3464;BME280;3551;41.578;24.706;2023-07-31T04:47:54;90847.03;;;20.78;85.85
3464;BME280;3551;41.578;24.706;2023-07-31T04:50:21;90850.59;;;20.84;85.22
3464;BME280;3551;41.578;24.706;2023-07-31T04:52:49;90858.47;;;20.82;86.50
3464;BME280;3551;41.578;24.706;2023-07-31T04:55:15;90849.50;;;20.91;85.66
3464;BME280;3551;41.578;24.706;2023-07-31T04:57:42;90857.47;;;20.94;86.83
3464;BME280;3551;41.578;24.706;2023-07-31T05:00:09;90848.59;;;20.61;86.80
3464;BME280;3551;41.578;24.706;2023-07-31T05:02:35;90843.72;;;20.41;88.98
3464;BME280;3551;41.578;24.706;2023-07-31T05:05:02;90848.03;;;20.57;89.53
3464;BME280;3551;41.578;24.706;2023-07-31T05:07:29;90844.13;;;20.25;91.65
3464;BME280;3551;41.578;24.706;2023-07-31T05:09:57;90858.78;;;20.51;90.12
3464;BME280;3551;41.578;24.706;2023-07-31T05:12:24;90863.03;;;20.76;88.66
3464;BME280;3551;41.578;24.706;2023-07-31T05:14:50;90863.50;;;20.98;89.25
3464;BME280;3551;41.578;24.706;2023-07-31T05:17:17;90868.56;;;21.05;90.38
3464;BME280;3551;41.578;24.706;2023-07-31T05:19:44;90865.41;;;21.07;90.43
3464;BME280;3551;41.578;24.706;2023-07-31T05:22:10;90863.09;;;21.14;90.54
3464;BME280;3551;41.578;24.706;2023-07-31T05:24:37;90862.88;;;21.27;90.70
3464;BME280;3551;41.578;24.706;2023-07-31T05:27:05;90868.44;;;21.47;88.64
3464;BME280;3551;41.578;24.706;2023-07-31T05:29:32;90874.66;;;21.48;87.68
3464;BME280;3551;41.578;24.706;2023-07-31T05:31:59;90866.44;;;21.33;88.16
3464;BME280;3551;41.578;24.706;2023-07-31T05:34:26;90872.28;;;21.17;89.01
3464;BME280;3551;41.578;24.706;2023-07-31T05:36:52;90869.38;;;20.97;88.71
3464;BME280;3551;41.578;24.706;2023-07-31T05:39:19;90880.28;;;20.64;87.81
3464;BME280;3551;41.578;24.706;2023-07-31T05:41:46;90887.09;;;20.92;86.88
3464;BME280;3551;41.578;24.706;2023-07-31T05:44:14;90879.97;;;20.95;86.05
3464;BME280;3551;41.578;24.706;2023-07-31T05:46:41;90886.91;;;20.96;84.13
3464;BME280;3551;41.578;24.706;2023-07-31T05:49:08;90890.19;;;20.76;89.54
3464;BME280;3551;41.578;24.706;2023-07-31T05:51:34;90900.50;;;20.96;88.24
3464;BME280;3551;41.578;24.706;2023-07-31T05:54:01;90902.56;;;21.10;87.58
3464;BME280;3551;41.578;24.706;2023-07-31T05:56:28;90898.94;;;21.13;89.54
3464;BME280;3551;41.578;24.706;2023-07-31T05:58:54;90905.56;;;21.12;87.88
3464;BME280;3551;41.578;24.706;2023-07-31T06:01:23;90897.53;;;21.17;87.30
3464;BME280;3551;41.578;24.706;2023-07-31T06:03:50;90893.94;;;21.11;87.99
3464;BME280;3551;41.578;24.706;2023-07-31T06:06:17;90895.25;;;20.92;89.23
3464;BME280;3551;41.578;24.706;2023-07-31T06:08:43;90901.34;;;20.54;88.77
3464;BME280;3551;41.578;24.706;2023-07-31T06:11:10;90908.78;;;20.77;88.44
3464;BME280;3551;41.578;24.706;2023-07-31T06:13:37;90908.03;;;20.77;84.54
3464;BME280;3551;41.578;24.706;2023-07-31T06:16:03;90912.81;;;20.82;85.20
3464;BME280;3551;41.578;24.706;2023-07-31T06:18:32;90909.13;;;20.94;85.21
3464;BME280;3551;41.578;24.706;2023-07-31T06:20:59;90910.88;;;21.06;83.81
3464;BME280;3551;41.578;24.706;2023-07-31T06:23:26;90918.94;;;21.24;83.47
3464;BME280;3551;41.578;24.706;2023-07-31T06:25:52;90919.22;;;21.26;84.11
3464;BME280;3551;41.578;24.706;2023-07-31T06:28:19;90924.66;;;21.50;82.56
3464;BME280;3551;41.578;24.706;2023-07-31T06:30:46;90921.41;;;21.75;81.15
3464;BME280;3551;41.578;24.706;2023-07-31T06:33:13;90923.78;;;21.82;80.44
3464;BME280;3551;41.578;24.706;2023-07-31T06:35:41;90915.75;;;21.88;80.33
3464;BME280;3551;41.578;24.706;2023-07-31T06:38:08;90920.44;;;21.88;80.65
3464;BME280;3551;41.578;24.706;2023-07-31T06:40:35;90918.56;;;22.08;80.30
3464;BME280;3551;41.578;24.706;2023-07-31T06:43:02;90920.63;;;21.60;82.82
3464;BME280;3551;41.578;24.706;2023-07-31T06:45:33;90915.19;;;21.60;82.06
3464;BME280;3551;41.578;24.706;2023-07-31T06:48:00;90921.53;;;21.43;81.72
3464;BME280;3551;41.578;24.706;2023-07-31T06:50:27;90923.50;;;21.42;83.09
3464;BME280;3551;41.578;24.706;2023-07-31T06:52:55;90922.06;;;21.70;83.17
3464;BME280;3551;41.578;24.706;2023-07-31T06:55:22;90923.59;;;21.86;82.97
3464;BME280;3551;41.578;24.706;2023-07-31T06:57:49;90921.75;;;21.92;83.66
3464;BME280;3551;41.578;24.706;2023-07-31T07:00:16;90920.44;;;21.88;81.49
3464;BME280;3551;41.578;24.706;2023-07-31T07:02:43;90920.38;;;21.73;81.86
3464;BME280;3551;41.578;24.706;2023-07-31T07:05:10;90922.53;;;21.83;80.60
3464;BME280;3551;41.578;24.706;2023-07-31T07:07:36;90928.00;;;21.83;80.61
3464;BME280;3551;41.578;24.706;2023-07-31T07:10:05;90921.38;;;21.99;81.42
3464;BME280;3551;41.578;24.706;2023-07-31T07:12:32;90926.47;;;22.06;81.51
3464;BME280;3551;41.578;24.706;2023-07-31T07:14:59;90924.59;;;22.27;80.96
3464;BME280;3551;41.578;24.706;2023-07-31T07:17:26;90932.47;;;21.96;80.39
3464;BME280;3551;41.578;24.706;2023-07-31T07:19:53;90931.53;;;21.99;82.70
3464;BME280;3551;41.578;24.706;2023-07-31T07:22:21;90934.91;;;21.94;80.14
3464;BME280;3551;41.578;24.706;2023-07-31T07:24:48;90928.16;;;22.18;79.93
3464;BME280;3551;41.578;24.706;2023-07-31T07:27:16;90930.50;;;22.11;78.79
3464;BME280;3551;41.578;24.706;2023-07-31T07:29:45;90929.34;;;21.50;82.30
3464;BME280;3551;41.578;24.706;2023-07-31T07:32:12;90928.78;;;21.60;82.04
3464;BME280;3551;41.578;24.706;2023-07-31T07:34:38;90936.78;;;22.02;80.79
3464;BME280;3551;41.578;24.706;2023-07-31T07:37:05;90932.94;;;22.53;79.03
3464;BME280;3551;41.578;24.706;2023-07-31T07:39:32;90932.53;;;22.60;77.10
3464;BME280;3551;41.578;24.706;2023-07-31T07:41:58;90936.50;;;22.88;76.45
3464;BME280;3551;41.578;24.706;2023-07-31T07:44:26;90935.50;;;23.06;76.63
3464;BME280;3551;41.578;24.706;2023-07-31T07:46:53;90927.28;;;23.20;74.75
3464;BME280;3551;41.578;24.706;2023-07-31T07:49:20;90938.56;;;23.48;75.13
3464;BME280;3551;41.578;24.706;2023-07-31T07:51:47;90934.56;;;23.43;72.42
3464;BME280;3551;41.578;24.706;2023-07-31T07:54:14;90922.00;;;23.97;72.84
3464;BME280;3551;41.578;24.706;2023-07-31T07:56:42;90930.88;;;24.13;68.96
3464;BME280;3551;41.578;24.706;2023-07-31T07:59:08;90919.97;;;24.13;66.71
3464;BME280;3551;41.578;24.706;2023-07-31T08:01:36;90924.56;;;24.27;67.61
3464;BME280;3551;41.578;24.706;2023-07-31T08:04:03;90922.09;;;24.54;64.36
3464;BME280;3551;41.578;24.706;2023-07-31T08:06:30;90930.78;;;25.21;61.47
3464;BME280;3551;41.578;24.706;2023-07-31T08:08:56;90924.94;;;25.98;59.32
3464;BME280;3551;41.578;24.706;2023-07-31T08:11:23;90935.03;;;26.46;58.66
3464;BME280;3551;41.578;24.706;2023-07-31T08:13:50;90932.84;;;26.89;57.36
3464;BME280;3551;41.578;24.706;2023-07-31T08:16:16;90925.81;;;27.26;54.23
3464;BME280;3551;41.578;24.706;2023-07-31T08:18:44;90931.06;;;27.47;53.58
3464;BME280;3551;41.578;24.706;2023-07-31T08:21:11;90935.59;;;27.05;51.08
3464;BME280;3551;41.578;24.706;2023-07-31T08:23:37;90931.84;;;27.08;52.83
3464;BME280;3551;41.578;24.706;2023-07-31T08:26:04;90926.09;;;27.01;53.56
3464;BME280;3551;41.578;24.706;2023-07-31T08:28:31;90926.81;;;26.57;52.75
3464;BME280;3551;41.578;24.706;2023-07-31T08:30:57;90920.09;;;26.74;53.17
3464;BME280;3551;41.578;24.706;2023-07-31T08:33:24;90921.84;;;27.22;52.26
3464;BME280;3551;41.578;24.706;2023-07-31T08:35:54;90918.59;;;27.23;51.27
3464;BME280;3551;41.578;24.706;2023-07-31T08:38:20;90922.84;;;26.74;53.24
3464;BME280;3551;41.578;24.706;2023-07-31T08:40:50;90914.63;;;26.63;52.71
3464;BME280;3551;41.578;24.706;2023-07-31T08:43:17;90927.31;;;26.44;52.82
3464;BME280;3551;41.578;24.706;2023-07-31T08:45:44;90915.09;;;26.45;52.74
3464;BME280;3551;41.578;24.706;2023-07-31T08:48:11;90922.53;;;26.17;56.20
3464;BME280;3551;41.578;24.706;2023-07-31T08:50:38;90915.47;;;25.94;55.04
3464;BME280;3551;41.578;24.706;2023-07-31T08:53:06;90917.38;;;25.65;55.84
3464;BME280;3551;41.578;24.706;2023-07-31T08:55:32;90917.97;;;25.92;55.03
3464;BME280;3551;41.578;24.706;2023-07-31T08:58:00;90909.13;;;26.63;54.82
3464;BME280;3551;41.578;24.706;2023-07-31T09:00:27;90913.63;;;26.94;54.31
3464;BME280;3551;41.578;24.706;2023-07-31T09:02:56;90918.13;;;27.08;53.25
3464;BME280;3551;41.578;24.706;2023-07-31T09:05:24;90928.31;;;27.30;53.32
3464;BME280;3551;41.578;24.706;2023-07-31T09:07:52;90921.06;;;27.32;51.82
3464;BME280;3551;41.578;24.706;2023-07-31T09:10:21;90922.34;;;27.43;54.03
3464;BME280;3551;41.578;24.706;2023-07-31T09:12:47;90921.56;;;27.36;54.24
3464;BME280;3551;41.578;24.706;2023-07-31T09:15:15;90920.59;;;26.73;51.34
3464;BME280;3551;41.578;24.706;2023-07-31T09:17:42;90927.56;;;27.24;51.61
3464;BME280;3551;41.578;24.706;2023-07-31T09:20:15;90926.09;;;27.28;50.76
3464;BME280;3551;41.578;24.706;2023-07-31T09:22:42;90927.09;;;27.14;51.82
3464;BME280;3551;41.578;24.706;2023-07-31T09:25:16;90924.59;;;27.16;51.96
3464;BME280;3551;41.578;24.706;2023-07-31T09:27:47;90924.56;;;27.50;51.80
3464;BME280;3551;41.578;24.706;2023-07-31T09:30:14;90927.59;;;27.13;50.34
3464;BME280;3551;41.578;24.706;2023-07-31T09:32:42;90919.09;;;26.66;50.41
3464;BME280;3551;41.578;24.706;2023-07-31T09:35:21;90917.41;;;26.97;50.76
3464;BME280;3551;41.578;24.706;2023-07-31T09:37:49;90916.34;;;27.22;50.04
3464;BME280;3551;41.578;24.706;2023-07-31T09:40:24;90918.69;;;27.86;48.94
3464;BME280;3551;41.578;24.706;2023-07-31T09:42:53;90913.72;;;28.31;48.44
3464;BME280;3551;41.578;24.706;2023-07-31T09:45:19;90914.81;;;28.17;47.01
3464;BME280;3551;41.578;24.706;2023-07-31T09:47:46;90912.09;;;28.12;48.98
3464;BME280;3551;41.578;24.706;2023-07-31T09:50:13;90911.88;;;28.51;47.85
3464;BME280;3551;41.578;24.706;2023-07-31T09:52:40;90916.03;;;28.68;46.50
3464;BME280;3551;41.578;24.706;2023-07-31T09:55:07;90904.09;;;28.55;46.81
3464;BME280;3551;41.578;24.706;2023-07-31T09:57:34;90905.25;;;28.70;47.12
3464;BME280;3551;41.578;24.706;2023-07-31T10:00:08;90902.78;;;28.61;47.04
3464;BME280;3551;41.578;24.706;2023-07-31T10:02:35;90902.16;;;27.98;46.09
3464;BME280;3551;41.578;24.706;2023-07-31T10:05:03;90902.41;;;27.14;48.32
3464;BME280;3551;41.578;24.706;2023-07-31T10:07:30;90896.63;;;26.35;50.28
3464;BME280;3551;41.578;24.706;2023-07-31T10:09:57;90900.78;;;26.08;51.51
3464;BME280;3551;41.578;24.706;2023-07-31T10:12:26;90893.22;;;25.69;54.50
3464;BME280;3551;41.578;24.706;2023-07-31T10:14:54;90893.00;;;25.31;57.12
3464;BME280;3551;41.578;24.706;2023-07-31T10:17:22;90896.94;;;25.18;58.25
3464;BME280;3551;41.578;24.706;2023-07-31T10:19:49;90895.25;;;25.32;58.17
3464;BME280;3551;41.578;24.706;2023-07-31T10:22:16;90898.91;;;25.12;57.05
3464;BME280;3551;41.578;24.706;2023-07-31T10:24:43;90892.94;;;25.14;55.10
3464;BME280;3551;41.578;24.706;2023-07-31T10:27:11;90891.47;;;25.18;53.30
3464;BME280;3551;41.578;24.706;2023-07-31T10:29:38;90896.03;;;25.33;52.90
3464;BME280;3551;41.578;24.706;2023-07-31T10:32:05;90908.19;;;25.80;53.26
3464;BME280;3551;41.578;24.706;2023-07-31T10:34:35;90896.94;;;25.66;55.40
3464;BME280;3551;41.578;24.706;2023-07-31T10:37:21;90902.72;;;25.74;57.73
3464;BME280;3551;41.578;24.706;2023-07-31T10:39:54;90896.03;;;25.33;57.53
3464;BME280;3551;41.578;24.706;2023-07-31T10:42:23;90904.97;;;25.28;58.99
3464;BME280;3551;41.578;24.706;2023-07-31T10:44:55;90897.84;;;25.04;61.63
3464;BME280;3551;41.578;24.706;2023-07-31T10:47:23;90896.47;;;24.83;61.68
3464;BME280;3551;41.578;24.706;2023-07-31T10:49:52;90895.53;;;24.92;62.37
3464;BME280;3551;41.578;24.706;2023-07-31T10:52:19;90891.63;;;25.04;62.04
3464;BME280;3551;41.578;24.706;2023-07-31T10:54:47;90894.00;;;25.28;59.38
3464;BME280;3551;41.578;24.706;2023-07-31T10:57:20;90890.38;;;25.05;60.00
3464;BME280;3551;41.578;24.706;2023-07-31T10:59:48;90895.38;;;25.06;60.86
3464;BME280;3551;41.578;24.706;2023-07-31T11:02:23;90903.72;;;24.86;62.20
3464;BME280;3551;41.578;24.706;2023-07-31T11:07:47;90904.00;;;24.94;61.91
3464;BME280;3551;41.578;24.706;2023-07-31T11:10:16;90904.19;;;24.85;62.50
3464;BME280;3551;41.578;24.706;2023-07-31T11:12:42;90896.13;;;24.76;63.27
3464;BME280;3551;41.578;24.706;2023-07-31T11:15:09;90895.63;;;25.08;62.72
3464;BME280;3551;41.578;24.706;2023-07-31T11:17:38;90885.50;;;25.20;62.40
3464;BME280;3551;41.578;24.706;2023-07-31T11:20:05;90892.75;;;25.29;61.19
3464;BME280;3551;41.578;24.706;2023-07-31T11:22:32;90892.44;;;25.15;61.89
3464;BME280;3551;41.578;24.706;2023-07-31T11:25:02;90897.50;;;25.34;62.04
3464;BME280;3551;41.578;24.706;2023-07-31T11:27:29;90900.56;;;25.47;60.56
3464;BME280;3551;41.578;24.706;2023-07-31T11:29:59;90885.06;;;25.33;61.74
3464;BME280;3551;41.578;24.706;2023-07-31T11:32:26;90879.56;;;24.53;64.00
3464;BME280;3551;41.578;24.706;2023-07-31T11:34:53;90874.44;;;24.35;65.49
3464;BME280;3551;41.578;24.706;2023-07-31T11:37:19;90863.34;;;24.13;66.10
3464;BME280;3551;41.578;24.706;2023-07-31T11:39:58;90865.50;;;24.09;66.42
3464;BME280;3551;41.578;24.706;2023-07-31T11:42:26;90859.00;;;24.32;66.46
3464;BME280;3551;41.578;24.706;2023-07-31T11:44:52;90851.56;;;24.70;65.23
3464;BME280;3551;41.578;24.706;2023-07-31T11:47:19;90852.44;;;24.81;65.00
3464;BME280;3551;41.578;24.706;2023-07-31T11:49:46;90846.66;;;25.16;64.75
3464;BME280;3551;41.578;24.706;2023-07-31T11:52:14;90852.41;;;25.24;62.93
3464;BME280;3551;41.578;24.706;2023-07-31T11:54:41;90851.84;;;25.08;63.30
3464;BME280;3551;41.578;24.706;2023-07-31T11:57:08;90853.81;;;25.02;64.24
3464;BME280;3551;41.578;24.706;2023-07-31T11:59:37;90854.63;;;24.77;64.57
3464;BME280;3551;41.578;24.706;2023-07-31T12:02:04;90850.22;;;24.85;64.67
3464;BME280;3551;41.578;24.706;2023-07-31T12:04:31;90852.16;;;24.79;64.80
3464;BME280;3551;41.578;24.706;2023-07-31T12:06:59;90861.66;;;24.84;65.92
3464;BME280;3551;41.578;24.706;2023-07-31T12:09:26;90857.47;;;24.88;66.02
3464;BME280;3551;41.578;24.706;2023-07-31T12:11:52;90853.22;;;25.35;64.41
3464;BME280;3551;41.578;24.706;2023-07-31T12:14:19;90857.47;;;25.36;64.15
3464;BME280;3551;41.578;24.706;2023-07-31T12:16:47;90858.53;;;25.07;65.66
3464;BME280;3551;41.578;24.706;2023-07-31T12:19:14;90863.53;;;25.03;66.31
3464;BME280;3551;41.578;24.706;2023-07-31T12:21:41;90852.44;;;24.81;66.48
3464;BME280;3551;41.578;24.706;2023-07-31T12:24:07;90858.66;;;24.82;67.28
3464;BME280;3551;41.578;24.706;2023-07-31T12:26:34;90842.03;;;24.85;67.28
3464;BME280;3551;41.578;24.706;2023-07-31T12:29:01;90856.72;;;24.56;68.38
3464;BME280;3551;41.578;24.706;2023-07-31T12:31:28;90863.09;;;24.42;68.68
3464;BME280;3551;41.578;24.706;2023-07-31T12:33:57;90868.72;;;24.07;71.48
3464;BME280;3551;41.578;24.706;2023-07-31T12:36:23;90859.66;;;23.96;72.84
3464;BME280;3551;41.578;24.706;2023-07-31T12:38:50;90859.28;;;24.08;72.22
3464;BME280;3551;41.578;24.706;2023-07-31T12:41:17;90853.03;;;24.28;71.46
3464;BME280;3551;41.578;24.706;2023-07-31T12:43:44;90849.22;;;24.20;72.05
3464;BME280;3551;41.578;24.706;2023-07-31T12:46:11;90841.94;;;24.12;71.45
3464;BME280;3551;41.578;24.706;2023-07-31T12:48:38;90852.22;;;24.22;71.27
3464;BME280;3551;41.578;24.706;2023-07-31T12:51:07;90855.47;;;24.26;71.02
3464;BME280;3551;41.578;24.706;2023-07-31T12:53:33;90847.06;;;24.30;71.25
3464;BME280;3551;41.578;24.706;2023-07-31T12:56:00;90856.94;;;23.96;73.03
3464;BME280;3551;41.578;24.706;2023-07-31T12:58:27;90860.25;;;23.80;73.56
3464;BME280;3551;41.578;24.706;2023-07-31T13:00:54;90856.34;;;23.86;73.77
3464;BME280;3551;41.578;24.706;2023-07-31T13:03:20;90849.56;;;23.82;73.53
3464;BME280;3551;41.578;24.706;2023-07-31T13:05:47;90865.97;;;23.82;73.69
3464;BME280;3551;41.578;24.706;2023-07-31T13:08:15;90861.75;;;23.81;74.01
3464;BME280;3551;41.578;24.706;2023-07-31T13:10:42;90863.72;;;23.80;73.18
3464;BME280;3551;41.578;24.706;2023-07-31T13:13:09;90869.78;;;23.90;72.24